sensor_id;sensor_type;location;lat;lon;timestamp;pressure;altitude;pressure_sealevel;temperature;humidity
63347;BME280;49472;49.880;8.650;2023-03-19T00:01:08;99753.81;;;17.17;nan
63347;BME280;49472;49.880;8.650;2023-03-19T00:03:34;99759.97;;;17.00;nan
63347;BME280;49472;49.880;8.650;2023-03-19T00:06:00;99762.06;;;16.96;nan
63347;BME280;49472;49.880;8.650;2023-03-19T00:08:25;99767.59;;;17.18;nan
63347;BME280;49472;49.880;8.650;2023-03-19T00:10:51;99768.69;;;17.48;nan
63347;BME280;49472;49.880;8.650;2023-03-19T00:13:17;99767.88;;;16.98;nan
63347;BME280;49472;49.880;8.650;2023-03-19T00:15:42;99768.13;;;16.70;nan
63347;BME280;49472;49.880;8.650;2023-03-19T00:18:07;99771.72;;;16.86;nan
63347;BME280;49472;49.880;8.650;2023-03-19T00:20:33;99770.88;;;16.77;nan
63347;BME280;49472;49.880;8.650;2023-03-19T00:22:59;99764.97;;;16.42;nan
63347;BME280;49472;49.880;8.650;2023-03-19T00:25:24;99762.72;;;16.05;nan
63347;BME280;49472;49.880;8.650;2023-03-19T00:27:50;99756.31;;;16.09;nan
63347;BME280;49472;49.880;8.650;2023-03-19T00:30:17;99754.84;;;16.06;nan
63347;BME280;49472;49.880;8.650;2023-03-19T00:32:42;99759.50;;;16.54;nan
63347;BME280;49472;49.880;8.650;2023-03-19T00:35:08;99759.94;;;16.33;nan
63347;BME280;49472;49.880;8.650;2023-03-19T00:37:34;99758.78;;;16.27;nan
63347;BME280;49472;49.880;8.650;2023-03-19T00:40:00;99767.03;;;15.96;nan
63347;BME280;49472;49.880;8.650;2023-03-19T00:42:25;99761.56;;;15.99;nan
63347;BME280;49472;49.880;8.650;2023-03-19T00:44:51;99764.50;;;16.47;nan
63347;BME280;49472;49.880;8.650;2023-03-19T00:47:16;99766.25;;;16.38;nan
63347;BME280;49472;49.880;8.650;2023-03-19T00:49:42;99763.41;;;16.15;nan
63347;BME280;49472;49.880;8.650;2023-03-19T00:52:07;99761.84;;;16.22;nan
63347;BME280;49472;49.880;8.650;2023-03-19T00:54:33;99767.91;;;16.47;nan
63347;BME280;49472;49.880;8.650;2023-03-19T00:56:58;99766.00;;;16.58;nan
63347;BME280;49472;49.880;8.650;2023-03-19T00:59:24;99759.53;;;16.11;nan
63347;BME280;49472;49.880;8.650;2023-03-19T01:01:50;99762.72;;;16.39;nan
63347;BME280;49472;49.880;8.650;2023-03-19T01:04:16;99775.84;;;16.20;nan
63347;BME280;49472;49.880;8.650;2023-03-19T01:06:42;99769.94;;;15.93;nan
63347;BME280;49472;49.880;8.650;2023-03-19T01:09:07;99770.66;;;16.54;nan
63347;BME280;49472;49.880;8.650;2023-03-19T01:11:32;99764.94;;;16.26;nan
63347;BME280;49472;49.880;8.650;2023-03-19T01:13:58;99765.66;;;16.61;nan
63347;BME280;49472;49.880;8.650;2023-03-19T01:16:23;99766.78;;;16.50;nan
63347;BME280;49472;49.880;8.650;2023-03-19T01:18:48;99767.56;;;16.42;nan
63347;BME280;49472;49.880;8.650;2023-03-19T01:21:14;99772.28;;;16.55;nan
63347;BME280;49472;49.880;8.650;2023-03-19T01:23:39;99767.78;;;16.15;nan
63347;BME280;49472;49.880;8.650;2023-03-19T01:26:04;99767.53;;;16.34;nan
63347;BME280;49472;49.880;8.650;2023-03-19T01:28:30;99766.97;;;16.14;nan
63347;BME280;49472;49.880;8.650;2023-03-19T01:31:00;99757.78;;;16.20;nan
63347;BME280;49472;49.880;8.650;2023-03-19T01:33:27;99756.34;;;16.25;nan
63347;BME280;49472;49.880;8.650;2023-03-19T01:35:52;99755.44;;;16.35;nan
63347;BME280;49472;49.880;8.650;2023-03-19T01:38:17;99761.16;;;16.12;nan
63347;BME280;49472;49.880;8.650;2023-03-19T01:40:47;99764.75;;;15.85;nan
63347;BME280;49472;49.880;8.650;2023-03-19T01:43:16;99763.28;;;16.17;nan
63347;BME280;49472;49.880;8.650;2023-03-19T01:45:43;99763.38;;;16.41;nan
63347;BME280;49472;49.880;8.650;2023-03-19T01:48:45;99766.06;;;16.23;nan
63347;BME280;49472;49.880;8.650;2023-03-19T01:51:19;99771.78;;;16.09;nan
63347;BME280;49472;49.880;8.650;2023-03-19T01:53:49;99765.50;;;16.12;nan
63347;BME280;49472;49.880;8.650;2023-03-19T01:56:22;99765.63;;;16.02;nan
63347;BME280;49472;49.880;8.650;2023-03-19T01:58:53;99764.25;;;15.90;nan
63347;BME280;49472;49.880;8.650;2023-03-19T02:01:20;99766.28;;;16.04;nan
63347;BME280;49472;49.880;8.650;2023-03-19T02:03:46;99760.13;;;16.05;nan
63347;BME280;49472;49.880;8.650;2023-03-19T02:06:13;99763.81;;;15.94;nan
63347;BME280;49472;49.880;8.650;2023-03-19T02:08:39;99762.00;;;15.87;nan
63347;BME280;49472;49.880;8.650;2023-03-19T02:11:05;99759.88;;;15.82;nan
63347;BME280;49472;49.880;8.650;2023-03-19T02:13:31;99756.72;;;15.96;nan
63347;BME280;49472;49.880;8.650;2023-03-19T02:15:58;99759.19;;;15.54;nan
63347;BME280;49472;49.880;8.650;2023-03-19T02:18:24;99759.69;;;15.75;nan
63347;BME280;49472;49.880;8.650;2023-03-19T02:21:06;99759.84;;;16.50;nan
63347;BME280;49472;49.880;8.650;2023-03-19T02:26:09;99755.81;;;16.05;nan
63347;BME280;49472;49.880;8.650;2023-03-19T02:28:38;99764.78;;;15.93;nan
63347;BME280;49472;49.880;8.650;2023-03-19T02:31:05;99761.34;;;15.67;nan
63347;BME280;49472;49.880;8.650;2023-03-19T02:33:31;99766.72;;;15.99;nan
63347;BME280;49472;49.880;8.650;2023-03-19T02:35:56;99758.81;;;15.93;nan
63347;BME280;49472;49.880;8.650;2023-03-19T02:38:24;99758.78;;;15.67;nan
63347;BME280;49472;49.880;8.650;2023-03-19T02:41:00;99760.34;;;16.12;nan
63347;BME280;49472;49.880;8.650;2023-03-19T02:43:30;99773.41;;;15.84;nan
63347;BME280;49472;49.880;8.650;2023-03-19T02:45:56;99766.50;;;15.67;nan
63347;BME280;49472;49.880;8.650;2023-03-19T02:48:23;99764.91;;;15.92;nan
63347;BME280;49472;49.880;8.650;2023-03-19T02:50:48;99770.59;;;15.95;nan
63347;BME280;49472;49.880;8.650;2023-03-19T02:53:13;99772.00;;;15.90;nan
63347;BME280;49472;49.880;8.650;2023-03-19T02:55:40;99770.38;;;15.62;nan
63347;BME280;49472;49.880;8.650;2023-03-19T02:58:05;99780.53;;;15.46;nan
63347;BME280;49472;49.880;8.650;2023-03-19T03:00:31;99772.09;;;15.62;nan
63347;BME280;49472;49.880;8.650;2023-03-19T03:02:56;99774.25;;;15.23;nan
63347;BME280;49472;49.880;8.650;2023-03-19T03:05:22;99774.16;;;15.32;nan
63347;BME280;49472;49.880;8.650;2023-03-19T03:07:48;99772.50;;;15.49;nan
63347;BME280;49472;49.880;8.650;2023-03-19T03:10:14;99775.28;;;15.56;nan
63347;BME280;49472;49.880;8.650;2023-03-19T03:12:39;99773.78;;;15.45;nan
63347;BME280;49472;49.880;8.650;2023-03-19T03:15:05;99773.38;;;15.58;nan
63347;BME280;49472;49.880;8.650;2023-03-19T03:17:31;99774.44;;;15.91;nan
63347;BME280;49472;49.880;8.650;2023-03-19T03:19:56;99775.28;;;15.56;nan
63347;BME280;49472;49.880;8.650;2023-03-19T03:22:21;99777.47;;;15.43;nan
63347;BME280;49472;49.880;8.650;2023-03-19T03:24:47;99779.56;;;15.65;nan
63347;BME280;49472;49.880;8.650;2023-03-19T03:27:12;99789.03;;;15.20;nan
63347;BME280;49472;49.880;8.650;2023-03-19T03:29:37;99782.34;;;15.28;nan
63347;BME280;49472;49.880;8.650;2023-03-19T03:32:03;99787.13;;;15.23;nan
63347;BME280;49472;49.880;8.650;2023-03-19T03:34:28;99791.75;;;15.19;nan
63347;BME280;49472;49.880;8.650;2023-03-19T03:36:53;99798.16;;;14.97;nan
63347;BME280;49472;49.880;8.650;2023-03-19T03:39:19;99793.31;;;15.30;nan
63347;BME280;49472;49.880;8.650;2023-03-19T03:41:44;99791.41;;;14.96;nan
63347;BME280;49472;49.880;8.650;2023-03-19T03:44:10;99798.28;;;14.95;nan
63347;BME280;49472;49.880;8.650;2023-03-19T03:46:35;99788.47;;;15.09;nan
63347;BME280;49472;49.880;8.650;2023-03-19T03:49:01;99793.00;;;15.15;nan
63347;BME280;49472;49.880;8.650;2023-03-19T03:51:26;99787.22;;;15.57;nan
63347;BME280;49472;49.880;8.650;2023-03-19T03:53:51;99790.25;;;15.70;nan
63347;BME280;49472;49.880;8.650;2023-03-19T03:56:17;99798.94;;;15.51;nan
63347;BME280;49472;49.880;8.650;2023-03-19T03:58:42;99789.53;;;15.42;nan
63347;BME280;49472;49.880;8.650;2023-03-19T04:01:12;99797.13;;;15.26;nan
63347;BME280;49472;49.880;8.650;2023-03-19T04:03:39;99802.19;;;15.17;nan
63347;BME280;49472;49.880;8.650;2023-03-19T04:06:05;99800.28;;;15.37;nan
63347;BME280;49472;49.880;8.650;2023-03-19T04:08:31;99799.47;;;15.55;nan
63347;BME280;49472;49.880;8.650;2023-03-19T04:10:56;99799.25;;;15.30;nan
63347;BME280;49472;49.880;8.650;2023-03-19T04:13:22;99802.44;;;15.24;nan
63347;BME280;49472;49.880;8.650;2023-03-19T04:15:47;99794.78;;;15.14;nan
63347;BME280;49472;49.880;8.650;2023-03-19T04:18:13;99801.53;;;15.33;nan
63347;BME280;49472;49.880;8.650;2023-03-19T04:20:38;99801.16;;;15.10;nan
63347;BME280;49472;49.880;8.650;2023-03-19T04:23:05;99805.06;;;15.50;nan
63347;BME280;49472;49.880;8.650;2023-03-19T04:25:30;99810.56;;;15.55;nan
63347;BME280;49472;49.880;8.650;2023-03-19T04:27:56;99818.44;;;15.54;nan
63347;BME280;49472;49.880;8.650;2023-03-19T04:30:22;99819.91;;;15.38;nan
63347;BME280;49472;49.880;8.650;2023-03-19T04:32:47;99825.16;;;15.29;nan
63347;BME280;49472;49.880;8.650;2023-03-19T04:35:12;99822.06;;;15.43;nan
63347;BME280;49472;49.880;8.650;2023-03-19T04:37:38;99821.03;;;15.18;nan
63347;BME280;49472;49.880;8.650;2023-03-19T04:40:04;99818.44;;;15.54;nan
63347;BME280;49472;49.880;8.650;2023-03-19T04:42:29;99818.63;;;15.34;nan
63347;BME280;49472;49.880;8.650;2023-03-19T04:44:55;99823.09;;;15.14;nan
63347;BME280;49472;49.880;8.650;2023-03-19T04:47:20;99830.41;;;15.19;nan
63347;BME280;49472;49.880;8.650;2023-03-19T04:49:45;99830.44;;;15.45;nan
63347;BME280;49472;49.880;8.650;2023-03-19T04:52:11;99827.28;;;15.33;nan
63347;BME280;49472;49.880;8.650;2023-03-19T04:54:36;99830.41;;;15.37;nan
63347;BME280;49472;49.880;8.650;2023-03-19T04:57:02;99837.16;;;15.20;nan
63347;BME280;49472;49.880;8.650;2023-03-19T04:59:27;99825.59;;;15.60;nan
63347;BME280;49472;49.880;8.650;2023-03-19T05:01:52;99827.16;;;15.17;nan
63347;BME280;49472;49.880;8.650;2023-03-19T05:04:18;99828.63;;;15.37;nan
63347;BME280;49472;49.880;8.650;2023-03-19T05:06:43;99825.25;;;15.37;nan
63347;BME280;49472;49.880;8.650;2023-03-19T05:09:09;99826.91;;;15.10;nan
63347;BME280;49472;49.880;8.650;2023-03-19T05:11:34;99835.91;;;15.24;nan
63347;BME280;49472;49.880;8.650;2023-03-19T05:14:00;99838.56;;;15.32;nan
63347;BME280;49472;49.880;8.650;2023-03-19T05:16:25;99840.88;;;15.08;nan
63347;BME280;49472;49.880;8.650;2023-03-19T05:18:51;99841.44;;;14.84;nan
63347;BME280;49472;49.880;8.650;2023-03-19T05:21:17;99844.75;;;15.22;nan
63347;BME280;49472;49.880;8.650;2023-03-19T05:23:42;99854.06;;;15.05;nan
63347;BME280;49472;49.880;8.650;2023-03-19T05:26:08;99850.09;;;15.46;nan
63347;BME280;49472;49.880;8.650;2023-03-19T05:28:34;99849.13;;;15.65;nan
63347;BME280;49472;49.880;8.650;2023-03-19T05:30:59;99850.38;;;15.61;nan
63347;BME280;49472;49.880;8.650;2023-03-19T05:33:24;99854.13;;;15.13;nan
63347;BME280;49472;49.880;8.650;2023-03-19T05:35:50;99847.16;;;15.77;nan
63347;BME280;49472;49.880;8.650;2023-03-19T05:38:16;99849.28;;;15.63;nan
63347;BME280;49472;49.880;8.650;2023-03-19T05:40:42;99847.88;;;15.15;nan
63347;BME280;49472;49.880;8.650;2023-03-19T05:43:08;99852.16;;;15.07;nan
63347;BME280;49472;49.880;8.650;2023-03-19T05:45:34;99861.28;;;15.01;nan
63347;BME280;49472;49.880;8.650;2023-03-19T05:48:01;99864.31;;;15.14;nan
63347;BME280;49472;49.880;8.650;2023-03-19T05:50:27;99875.31;;;15.07;nan
63347;BME280;49472;49.880;8.650;2023-03-19T05:52:52;99874.66;;;15.05;nan
63347;BME280;49472;49.880;8.650;2023-03-19T05:55:17;99875.16;;;15.08;nan
63347;BME280;49472;49.880;8.650;2023-03-19T05:57:42;99877.25;;;15.40;nan
63347;BME280;49472;49.880;8.650;2023-03-19T06:00:09;99883.50;;;15.20;nan
63347;BME280;49472;49.880;8.650;2023-03-19T06:02:35;99885.78;;;15.23;nan
63347;BME280;49472;49.880;8.650;2023-03-19T06:05:00;99887.03;;;15.19;nan
63347;BME280;49472;49.880;8.650;2023-03-19T06:07:26;99886.59;;;15.24;nan
63347;BME280;49472;49.880;8.650;2023-03-19T06:09:51;99895.97;;;15.43;nan
63347;BME280;49472;49.880;8.650;2023-03-19T06:12:16;99904.97;;;14.83;nan
63347;BME280;49472;49.880;8.650;2023-03-19T06:14:42;99903.31;;;15.19;nan
63347;BME280;49472;49.880;8.650;2023-03-19T06:17:07;99904.03;;;15.12;nan
63347;BME280;49472;49.880;8.650;2023-03-19T06:19:33;99903.75;;;14.87;nan
63347;BME280;49472;49.880;8.650;2023-03-19T06:21:58;99909.22;;;14.74;nan
63347;BME280;49472;49.880;8.650;2023-03-19T06:24:23;99908.13;;;15.05;nan
63347;BME280;49472;49.880;8.650;2023-03-19T06:26:49;99903.94;;;15.85;nan
63347;BME280;49472;49.880;8.650;2023-03-19T06:29:14;99906.69;;;15.20;nan
63347;BME280;49472;49.880;8.650;2023-03-19T06:31:40;99903.84;;;15.77;nan
63347;BME280;49472;49.880;8.650;2023-03-19T06:34:06;99908.06;;;15.78;nan
63347;BME280;49472;49.880;8.650;2023-03-19T06:36:31;99908.31;;;15.57;nan
63347;BME280;49472;49.880;8.650;2023-03-19T06:38:57;99910.31;;;15.27;nan
63347;BME280;49472;49.880;8.650;2023-03-19T06:41:22;99910.25;;;15.37;nan
63347;BME280;49472;49.880;8.650;2023-03-19T06:43:49;99907.72;;;15.73;nan
63347;BME280;49472;49.880;8.650;2023-03-19T06:46:14;99908.84;;;15.96;nan
63347;BME280;49472;49.880;8.650;2023-03-19T06:48:40;99897.34;;;16.09;nan
63347;BME280;49472;49.880;8.650;2023-03-19T06:51:05;99910.03;;;15.66;nan
63347;BME280;49472;49.880;8.650;2023-03-19T06:53:31;99911.00;;;16.27;nan
63347;BME280;49472;49.880;8.650;2023-03-19T06:55:56;99907.53;;;15.92;nan
63347;BME280;49472;49.880;8.650;2023-03-19T06:58:21;99921.47;;;16.25;nan
63347;BME280;49472;49.880;8.650;2023-03-19T07:00:47;99921.06;;;15.94;nan
63347;BME280;49472;49.880;8.650;2023-03-19T07:03:12;99924.00;;;15.46;nan
63347;BME280;49472;49.880;8.650;2023-03-19T07:05:37;99927.03;;;15.95;nan
63347;BME280;49472;49.880;8.650;2023-03-19T07:08:03;99925.44;;;15.94;nan
63347;BME280;49472;49.880;8.650;2023-03-19T07:10:28;99918.03;;;16.17;nan
63347;BME280;49472;49.880;8.650;2023-03-19T07:12:54;99929.50;;;16.22;nan
63347;BME280;49472;49.880;8.650;2023-03-19T07:15:19;99932.63;;;15.54;nan
63347;BME280;49472;49.880;8.650;2023-03-19T07:17:46;99927.94;;;16.30;nan
63347;BME280;49472;49.880;8.650;2023-03-19T07:20:12;99933.16;;;15.94;nan
63347;BME280;49472;49.880;8.650;2023-03-19T07:22:38;99932.75;;;15.80;nan
63347;BME280;49472;49.880;8.650;2023-03-19T07:25:03;99932.47;;;16.10;nan
63347;BME280;49472;49.880;8.650;2023-03-19T07:27:29;99936.50;;;15.86;nan
63347;BME280;49472;49.880;8.650;2023-03-19T07:29:54;99945.56;;;15.72;nan
63347;BME280;49472;49.880;8.650;2023-03-19T07:32:20;99945.16;;;16.21;nan
63347;BME280;49472;49.880;8.650;2023-03-19T07:34:46;99939.28;;;16.37;nan
63347;BME280;49472;49.880;8.650;2023-03-19T07:37:11;99932.84;;;16.41;nan
63347;BME280;49472;49.880;8.650;2023-03-19T07:39:36;99929.41;;;16.58;nan
63347;BME280;49472;49.880;8.650;2023-03-19T07:42:02;99935.25;;;16.68;nan
63347;BME280;49472;49.880;8.650;2023-03-19T07:44:27;99932.53;;;16.70;nan
63347;BME280;49472;49.880;8.650;2023-03-19T07:46:52;99940.84;;;16.30;nan
63347;BME280;49472;49.880;8.650;2023-03-19T07:49:18;99938.94;;;16.66;nan
63347;BME280;49472;49.880;8.650;2023-03-19T07:51:43;99947.19;;;16.61;nan
63347;BME280;49472;49.880;8.650;2023-03-19T07:54:08;99942.97;;;16.60;nan
63347;BME280;49472;49.880;8.650;2023-03-19T07:56:33;99947.66;;;16.65;nan
63347;BME280;49472;49.880;8.650;2023-03-19T07:58:59;99955.72;;;16.62;nan
63347;BME280;49472;49.880;8.650;2023-03-19T08:01:24;99954.09;;;16.61;nan
63347;BME280;49472;49.880;8.650;2023-03-19T08:03:50;99951.84;;;16.66;nan
63347;BME280;49472;49.880;8.650;2023-03-19T08:06:16;99953.47;;;16.93;nan
63347;BME280;49472;49.880;8.650;2023-03-19T08:08:41;99956.38;;;16.90;nan
63347;BME280;49472;49.880;8.650;2023-03-19T08:11:06;99952.06;;;17.07;nan
63347;BME280;49472;49.880;8.650;2023-03-19T08:13:32;99968.78;;;16.60;nan
63347;BME280;49472;49.880;8.650;2023-03-19T08:15:58;99967.31;;;16.58;nan
63347;BME280;49472;49.880;8.650;2023-03-19T08:18:23;99961.13;;;16.50;nan
63347;BME280;49472;49.880;8.650;2023-03-19T08:20:48;99963.03;;;16.22;nan
63347;BME280;49472;49.880;8.650;2023-03-19T08:23:14;99969.44;;;16.62;nan
63347;BME280;49472;49.880;8.650;2023-03-19T08:25:40;99966.06;;;16.96;nan
63347;BME280;49472;49.880;8.650;2023-03-19T08:28:06;99968.66;;;16.96;nan
63347;BME280;49472;49.880;8.650;2023-03-19T08:30:34;99977.66;;;16.66;nan
63347;BME280;49472;49.880;8.650;2023-03-19T08:32:59;99967.41;;;16.74;nan
63347;BME280;49472;49.880;8.650;2023-03-19T08:35:24;99969.94;;;16.92;nan
63347;BME280;49472;49.880;8.650;2023-03-19T08:37:54;99969.78;;;17.44;nan
63347;BME280;49472;49.880;8.650;2023-03-19T08:40:20;99964.84;;;17.67;nan
63347;BME280;49472;49.880;8.650;2023-03-19T08:42:45;99971.53;;;17.86;nan
63347;BME280;49472;49.880;8.650;2023-03-19T08:45:12;99971.03;;;18.15;nan
63347;BME280;49472;49.880;8.650;2023-03-19T08:47:38;99976.47;;;17.63;nan
63347;BME280;49472;49.880;8.650;2023-03-19T08:50:04;99964.91;;;17.92;nan
63347;BME280;49472;49.880;8.650;2023-03-19T08:52:30;99972.78;;;18.48;nan
63347;BME280;49472;49.880;8.650;2023-03-19T08:54:55;99966.88;;;18.86;nan
63347;BME280;49472;49.880;8.650;2023-03-19T08:57:20;99970.88;;;18.97;nan
63347;BME280;49472;49.880;8.650;2023-03-19T08:59:46;99970.59;;;18.84;nan
63347;BME280;49472;49.880;8.650;2023-03-19T09:02:11;99973.59;;;18.40;nan
63347;BME280;49472;49.880;8.650;2023-03-19T09:04:41;99968.09;;;18.43;nan
63347;BME280;49472;49.880;8.650;2023-03-19T09:07:06;99966.88;;;18.86;nan
63347;BME280;49472;49.880;8.650;2023-03-19T09:09:32;99972.06;;;19.26;nan
63347;BME280;49472;49.880;8.650;2023-03-19T09:11:57;99966.19;;;19.32;nan
63347;BME280;49472;49.880;8.650;2023-03-19T09:14:22;99967.00;;;19.01;nan
63347;BME280;49472;49.880;8.650;2023-03-19T09:16:48;99976.47;;;18.53;nan
63347;BME280;49472;49.880;8.650;2023-03-19T09:19:13;99973.34;;;18.91;nan
63347;BME280;49472;49.880;8.650;2023-03-19T09:21:39;99975.88;;;19.07;nan
63347;BME280;49472;49.880;8.650;2023-03-19T09:24:05;99969.59;;;19.33;nan
63347;BME280;49472;49.880;8.650;2023-03-19T09:26:31;99982.50;;;18.29;nan
63347;BME280;49472;49.880;8.650;2023-03-19T09:28:56;99971.34;;;17.88;nan
63347;BME280;49472;49.880;8.650;2023-03-19T09:31:22;99975.97;;;18.66;nan
63347;BME280;49472;49.880;8.650;2023-03-19T09:33:47;99973.06;;;18.61;nan
63347;BME280;49472;49.880;8.650;2023-03-19T09:36:13;99976.94;;;18.57;nan
63347;BME280;49472;49.880;8.650;2023-03-19T09:38:38;99978.72;;;18.64;nan
63347;BME280;49472;49.880;8.650;2023-03-19T09:43:55;99979.69;;;18.63;nan
63347;BME280;49472;49.880;8.650;2023-03-19T09:46:31;99980.19;;;19.15;nan
63347;BME280;49472;49.880;8.650;2023-03-19T09:49:51;99977.66;;;19.38;nan
63347;BME280;49472;49.880;8.650;2023-03-19T09:52:23;99973.06;;;18.61;nan
63347;BME280;49472;49.880;8.650;2023-03-19T09:54:55;99984.44;;;18.35;nan
63347;BME280;49472;49.880;8.650;2023-03-19T09:57:22;99981.53;;;19.02;nan
63347;BME280;49472;49.880;8.650;2023-03-19T09:59:48;99986.47;;;18.89;nan
63347;BME280;49472;49.880;8.650;2023-03-19T10:02:35;99985.81;;;18.87;nan
63347;BME280;49472;49.880;8.650;2023-03-19T10:08:13;99983.59;;;18.76;nan
63347;BME280;49472;49.880;8.650;2023-03-19T10:13:34;99991.19;;;18.77;nan
63347;BME280;49472;49.880;8.650;2023-03-19T10:16:04;99988.06;;;18.90;nan
63347;BME280;49472;49.880;8.650;2023-03-19T10:18:33;99994.53;;;18.94;nan
63347;BME280;49472;49.880;8.650;2023-03-19T10:21:12;99989.91;;;19.52;nan
63347;BME280;49472;49.880;8.650;2023-03-19T10:23:45;99998.63;;;18.80;nan
63347;BME280;49472;49.880;8.650;2023-03-19T10:26:17;99992.75;;;18.95;nan
63347;BME280;49472;49.880;8.650;2023-03-19T10:28:45;99992.97;;;19.24;nan
63347;BME280;49472;49.880;8.650;2023-03-19T10:34:30;99974.91;;;19.70;nan
63347;BME280;49472;49.880;8.650;2023-03-19T10:39:40;99977.25;;;20.03;nan
63347;BME280;49472;49.880;8.650;2023-03-19T10:42:34;99976.47;;;21.00;nan
63347;BME280;49472;49.880;8.650;2023-03-19T10:45:17;99972.69;;;21.75;nan
63347;BME280;49472;49.880;8.650;2023-03-19T10:47:44;99970.34;;;21.80;nan
63347;BME280;49472;49.880;8.650;2023-03-19T10:50:21;99960.50;;;21.03;nan
63347;BME280;49472;49.880;8.650;2023-03-19T10:52:51;99974.06;;;20.69;nan
63347;BME280;49472;49.880;8.650;2023-03-19T10:55:29;99967.41;;;21.47;nan
63347;BME280;49472;49.880;8.650;2023-03-19T10:58:02;99973.78;;;21.44;nan
63347;BME280;49472;49.880;8.650;2023-03-19T11:00:29;99978.44;;;22.14;nan
63347;BME280;49472;49.880;8.650;2023-03-19T11:02:57;99964.16;;;21.81;nan
63347;BME280;49472;49.880;8.650;2023-03-19T11:05:26;99970.34;;;22.02;nan
63347;BME280;49472;49.880;8.650;2023-03-19T11:08:03;99980.34;;;21.04;nan
63347;BME280;49472;49.880;8.650;2023-03-19T11:10:32;99975.09;;;21.19;nan
63347;BME280;49472;49.880;8.650;2023-03-19T11:13:04;99968.91;;;21.20;nan
63347;BME280;49472;49.880;8.650;2023-03-19T11:15:36;99975.97;;;21.62;nan
63347;BME280;49472;49.880;8.650;2023-03-19T11:18:13;99985.88;;;21.95;nan
63347;BME280;49472;49.880;8.650;2023-03-19T11:20:39;99971.50;;;21.78;nan
63347;BME280;49472;49.880;8.650;2023-03-19T11:23:11;99971.91;;;21.02;nan
63347;BME280;49472;49.880;8.650;2023-03-19T11:25:49;99976.47;;;21.36;nan
63347;BME280;49472;49.880;8.650;2023-03-19T11:28:18;99979.78;;;20.94;nan
63347;BME280;49472;49.880;8.650;2023-03-19T11:39:23;99971.38;;;21.43;nan
63347;BME280;49472;49.880;8.650;2023-03-19T11:44:54;99961.09;;;23.52;nan
63347;BME280;49472;49.880;8.650;2023-03-19T11:47:48;99964.34;;;24.47;nan
63347;BME280;49472;49.880;8.650;2023-03-19T11:53:08;99955.59;;;22.16;nan
63347;BME280;49472;49.880;8.650;2023-03-19T11:56:01;99952.81;;;21.89;nan
63347;BME280;49472;49.880;8.650;2023-03-19T11:58:55;99953.06;;;22.50;nan
63347;BME280;49472;49.880;8.650;2023-03-19T12:09:55;99936.59;;;22.43;nan
63347;BME280;49472;49.880;8.650;2023-03-19T12:12:45;99944.31;;;21.59;nan
63347;BME280;49472;49.880;8.650;2023-03-19T12:15:25;99945.28;;;21.36;nan
63347;BME280;49472;49.880;8.650;2023-03-19T12:18:08;99944.63;;;21.49;nan
63347;BME280;49472;49.880;8.650;2023-03-19T12:27:03;99952.72;;;20.88;nan
63347;BME280;49472;49.880;8.650;2023-03-19T12:34:52;99949.41;;;20.94;nan
63347;BME280;49472;49.880;8.650;2023-03-19T12:37:27;99947.19;;;20.76;nan
63347;BME280;49472;49.880;8.650;2023-03-19T12:40:32;99950.22;;;20.80;nan
63347;BME280;49472;49.880;8.650;2023-03-19T12:43:03;99948.09;;;20.69;nan
63347;BME280;49472;49.880;8.650;2023-03-19T12:45:34;99947.91;;;20.70;nan
63347;BME280;49472;49.880;8.650;2023-03-19T12:50:51;99949.50;;;22.02;nan
63347;BME280;49472;49.880;8.650;2023-03-19T12:55:56;99947.59;;;21.67;nan
63347;BME280;49472;49.880;8.650;2023-03-19T12:58:28;99953.63;;;21.68;nan
63347;BME280;49472;49.880;8.650;2023-03-19T13:01:02;99950.00;;;23.23;nan
63347;BME280;49472;49.880;8.650;2023-03-19T13:03:43;99948.63;;;23.34;nan
63347;BME280;49472;49.880;8.650;2023-03-19T13:06:27;99952.88;;;23.61;nan
63347;BME280;49472;49.880;8.650;2023-03-19T13:09:03;99956.69;;;23.59;nan
63347;BME280;49472;49.880;8.650;2023-03-19T13:11:45;99969.25;;;22.18;nan
63347;BME280;49472;49.880;8.650;2023-03-19T13:14:37;99965.69;;;21.18;nan
63347;BME280;49472;49.880;8.650;2023-03-19T13:17:24;99977.34;;;21.22;nan
63347;BME280;49472;49.880;8.650;2023-03-19T13:19:51;99978.19;;;21.44;nan
63347;BME280;49472;49.880;8.650;2023-03-19T13:22:25;99983.09;;;21.17;nan
63347;BME280;49472;49.880;8.650;2023-03-19T13:24:53;99997.34;;;21.07;nan
63347;BME280;49472;49.880;8.650;2023-03-19T13:27:39;99998.31;;;20.08;nan
63347;BME280;49472;49.880;8.650;2023-03-19T13:30:10;100005.63;;;20.43;nan
63347;BME280;49472;49.880;8.650;2023-03-19T13:32:48;99995.56;;;20.63;nan
63347;BME280;49472;49.880;8.650;2023-03-19T13:35:30;100000.69;;;20.56;nan
63347;BME280;49472;49.880;8.650;2023-03-19T13:38:24;100011.50;;;19.99;nan
63347;BME280;49472;49.880;8.650;2023-03-19T13:40:53;99996.66;;;19.69;nan
63347;BME280;49472;49.880;8.650;2023-03-19T13:59:27;100012.34;;;18.97;nan
63347;BME280;49472;49.880;8.650;2023-03-19T14:01:53;100023.06;;;18.61;nan
63347;BME280;49472;49.880;8.650;2023-03-19T14:04:22;100014.06;;;18.25;nan
63347;BME280;49472;49.880;8.650;2023-03-19T14:06:52;100016.16;;;18.05;nan
63347;BME280;49472;49.880;8.650;2023-03-19T14:12:08;100015.00;;;18.32;nan
63347;BME280;49472;49.880;8.650;2023-03-19T14:14:39;100013.53;;;17.88;nan
63347;BME280;49472;49.880;8.650;2023-03-19T14:17:15;100013.28;;;17.65;nan
63347;BME280;49472;49.880;8.650;2023-03-19T14:19:43;100011.13;;;17.87;nan
63347;BME280;49472;49.880;8.650;2023-03-19T14:22:18;100001.91;;;18.09;nan
63347;BME280;49472;49.880;8.650;2023-03-19T14:25:02;100013.41;;;18.22;nan
63347;BME280;49472;49.880;8.650;2023-03-19T14:27:30;100004.34;;;18.10;nan
63347;BME280;49472;49.880;8.650;2023-03-19T14:29:58;100003.16;;;17.21;nan
63347;BME280;49472;49.880;8.650;2023-03-19T14:32:33;100000.16;;;18.09;nan
63347;BME280;49472;49.880;8.650;2023-03-19T14:35:03;100000.34;;;17.57;nan
63347;BME280;49472;49.880;8.650;2023-03-19T14:37:43;100000.69;;;17.54;nan
63347;BME280;49472;49.880;8.650;2023-03-19T14:40:12;100004.38;;;17.09;nan
63347;BME280;49472;49.880;8.650;2023-03-19T14:42:55;99998.41;;;16.56;nan
63347;BME280;49472;49.880;8.650;2023-03-19T14:45:45;99995.13;;;17.32;nan